Time;durP1;ratioP1;P1;durP2;ratioP2;P2;SDS_P1;SDS_P2;PMS_P1;PMS_P2;Temp;Humidity;BMP_temperature;BMP_pressure;BME280_temperature;BME280_humidity;BME280_pressure;Samples;Min_cycle;Max_cycle;Signal;HPM_P1;HPM_P2
2022/05/22 00:00:24;;;;;;;6.47;2.83;;;14.50;99.90;;;;;;4181118;28;20183;-89
2022/05/22 00:02:25;;;;;;;7.95;2.28;;;14.40;99.90;;;;;;4180988;28;20748;-89
2022/05/22 00:04:26;;;;;;;6.28;2.40;;;14.40;99.90;;;;;;4180973;28;20167;-91
2022/05/22 00:06:27;;;;;;;10.25;2.50;;;14.40;99.90;;;;;;4180898;28;20658;-90
2022/05/22 00:08:28;;;;;;;9.27;2.28;;;14.40;99.90;;;;;;4180871;28;20571;-89
2022/05/22 00:10:32;;;;;;;7.50;2.50;;;14.30;99.90;;;;;;4181221;28;20234;-88
2022/05/22 00:12:32;;;;;;;11.95;2.22;;;14.30;99.90;;;;;;4180714;28;20255;-90
2022/05/22 00:14:33;;;;;;;6.65;2.38;;;14.30;99.90;;;;;;4197305;28;20689;-88
2022/05/22 00:16:37;;;;;;;11.70;2.78;;;14.30;99.90;;;;;;4180766;28;20190;-90
2022/05/22 00:18:39;;;;;;;8.52;2.40;;;14.30;99.90;;;;;;4180881;28;20187;-91
2022/05/22 00:20:40;;;;;;;6.20;2.25;;;14.30;99.90;;;;;;4197170;28;20254;-88
2022/05/22 00:22:41;;;;;;;7.68;2.00;;;14.30;99.90;;;;;;4180903;28;20203;-90
2022/05/22 00:24:42;;;;;;;11.38;2.58;;;14.20;99.90;;;;;;4180792;28;20186;-88
2022/05/22 00:26:42;;;;;;;8.57;2.30;;;14.20;99.90;;;;;;4181619;28;20199;-91
2022/05/22 00:28:43;;;;;;;12.02;2.60;;;14.20;99.90;;;;;;4183769;28;20218;-89
2022/05/22 00:30:44;;;;;;;8.75;2.55;;;14.10;99.90;;;;;;4183849;28;20168;-89
2022/05/22 00:32:45;;;;;;;11.93;2.83;;;14.10;99.90;;;;;;4200437;28;20177;-88
2022/05/22 00:34:48;;;;;;;11.88;2.88;;;14.10;99.90;;;;;;4183798;28;20695;-90
2022/05/22 00:36:49;;;;;;;6.15;2.38;;;14.10;99.90;;;;;;4183683;28;20286;-88
2022/05/22 00:38:50;;;;;;;7.55;2.58;;;14.00;99.90;;;;;;4200437;28;20676;-90
2022/05/22 00:40:51;;;;;;;8.55;2.45;;;14.00;99.90;;;;;;4201017;28;20558;-91
2022/05/22 00:42:52;;;;;;;8.35;2.42;;;13.90;99.90;;;;;;4183781;28;20167;-90
2022/05/22 00:44:55;;;;;;;12.50;2.78;;;13.80;99.90;;;;;;4183815;28;20199;-91
2022/05/22 00:46:56;;;;;;;9.57;2.50;;;13.80;99.90;;;;;;4183723;28;20600;-91
2022/05/22 00:49:04;;;;;;;7.70;2.30;;;13.70;99.90;;;;;;4201412;28;20224;-88
2022/05/22 00:51:16;;;;;;;8.30;2.40;;;13.80;99.90;;;;;;4200269;28;20239;-90
2022/05/22 00:53:20;;;;;;;5.00;1.95;;;13.80;99.90;;;;;;4183452;28;20229;-89
2022/05/22 00:55:26;;;;;;;7.95;2.72;;;13.80;99.90;;;;;;4199838;28;20175;-89
2022/05/22 00:57:38;;;;;;;15.85;2.80;;;13.90;99.90;;;;;;4199973;28;20273;-89
2022/05/22 00:59:51;;;;;;;5.25;2.28;;;13.90;99.90;;;;;;4183346;28;20179;-89
2022/05/22 01:01:55;;;;;;;9.43;2.83;;;13.80;99.90;;;;;;4200049;28;20720;-90
2022/05/22 01:03:57;;;;;;;9.63;2.72;;;13.60;99.90;;;;;;4183132;28;20175;-90
2022/05/22 01:06:20;;;;;;;6.82;2.95;;;13.60;99.90;;;;;;4183156;28;20628;-90
2022/05/22 01:08:21;;;;;;;7.05;2.85;;;13.50;99.90;;;;;;4182983;28;20207;-87
2022/05/22 01:10:34;;;;;;;12.50;3.00;;;13.50;99.90;;;;;;4183275;28;20174;-88
2022/05/22 01:12:34;;;;;;;10.50;3.00;;;13.60;99.90;;;;;;4183126;28;20175;-88
2022/05/22 01:14:36;;;;;;;13.13;3.60;;;13.60;99.90;;;;;;4199744;28;20174;-88
2022/05/22 01:16:38;;;;;;;8.98;3.28;;;13.60;99.90;;;;;;4183208;28;20200;-89
2022/05/22 01:18:46;;;;;;;11.00;3.17;;;13.70;99.90;;;;;;4182768;28;20182;-90
2022/05/22 01:20:51;;;;;;;10.77;3.28;;;13.50;99.90;;;;;;4199536;28;20175;-90
2022/05/22 01:22:55;;;;;;;8.40;3.10;;;13.50;99.90;;;;;;4199869;28;20719;-89
2022/05/22 01:24:56;;;;;;;7.95;3.15;;;13.50;99.90;;;;;;4183090;28;20167;-88
2022/05/22 01:27:01;;;;;;;8.38;2.85;;;13.40;99.90;;;;;;4182640;28;20217;-88
2022/05/22 01:29:17;;;;;;;12.98;3.72;;;13.40;99.90;;;;;;4184977;28;20174;-90
2022/05/22 01:31:18;;;;;;;10.38;4.05;;;13.30;99.90;;;;;;4182699;28;20172;-89
2022/05/22 01:33:20;;;;;;;13.90;4.60;;;13.20;99.90;;;;;;4199444;28;20269;-90
2022/05/22 01:35:27;;;;;;;12.48;3.60;;;13.10;99.90;;;;;;4182968;28;20240;-88
2022/05/22 01:37:28;;;;;;;11.73;3.20;;;13.10;99.90;;;;;;4182476;28;20198;-91
2022/05/22 01:39:29;;;;;;;12.00;3.85;;;13.20;99.90;;;;;;4182960;28;20250;-87
2022/05/22 01:41:32;;;;;;;16.35;3.67;;;13.20;99.90;;;;;;4182988;28;20222;-89
2022/05/22 01:43:34;;;;;;;8.55;3.00;;;13.20;99.90;;;;;;4182568;28;20179;-91
2022/05/22 01:45:37;;;;;;;14.13;4.03;;;13.20;99.90;;;;;;4182892;28;20266;-88
2022/05/22 01:47:39;;;;;;;13.48;3.75;;;13.20;99.90;;;;;;4183023;28;20211;-88
2022/05/22 01:49:39;;;;;;;14.70;3.60;;;14.00;99.90;;;;;;4199581;28;21230;-90
2022/05/22 01:51:43;;;;;;;11.27;3.00;;;14.50;99.90;;;;;;4183160;28;20267;-88
2022/05/22 01:53:45;;;;;;;8.77;3.08;;;14.10;99.90;;;;;;4182869;28;20591;-89
2022/05/22 01:55:50;;;;;;;9.48;3.00;;;13.70;99.90;;;;;;4199034;28;20210;-90
2022/05/22 01:57:51;;;;;;;10.68;3.35;;;13.50;99.90;;;;;;4182425;28;20266;-90
2022/05/22 01:59:53;;;;;;;8.13;2.83;;;13.30;99.90;;;;;;4199079;28;20166;-87
2022/05/22 02:01:57;;;;;;;9.23;3.25;;;13.20;99.90;;;;;;4182929;28;20720;-91
2022/05/22 02:03:58;;;;;;;9.32;2.72;;;13.20;99.90;;;;;;4199004;28;20170;-88
2022/05/22 02:06:05;;;;;;;11.88;3.30;;;13.20;99.90;;;;;;4183062;28;20171;-90
2022/05/22 02:08:19;;;;;;;7.72;2.78;;;13.10;99.90;;;;;;4182423;28;20318;-90
2022/05/22 02:10:22;;;;;;;10.52;3.03;;;13.00;99.90;;;;;;4198816;28;20277;-89
2022/05/22 02:12:23;;;;;;;6.97;2.92;;;13.00;99.90;;;;;;4198737;28;20249;-90
2022/05/22 02:14:24;;;;;;;11.77;3.40;;;12.90;99.90;;;;;;4198597;28;20198;-89
2022/05/22 02:16:35;;;;;;;7.28;2.70;;;13.00;99.90;;;;;;4183333;28;20645;-90
2022/05/22 02:18:36;;;;;;;7.45;3.08;;;12.90;99.90;;;;;;4182079;28;20346;-90
2022/05/22 02:20:36;;;;;;;6.72;2.67;;;12.90;99.90;;;;;;4198589;28;20623;-90
2022/05/22 02:22:42;;;;;;;7.40;2.95;;;12.80;99.90;;;;;;4198560;28;20199;-90
2022/05/22 02:24:50;;;;;;;7.63;3.03;;;12.90;99.90;;;;;;4182302;28;20610;-90
2022/05/22 02:26:50;;;;;;;9.30;3.30;;;12.90;99.90;;;;;;4181802;28;20624;-91
2022/05/22 02:28:51;;;;;;;7.68;3.30;;;12.70;99.90;;;;;;4181943;28;20215;-90
2022/05/22 02:30:56;;;;;;;8.63;3.00;;;12.70;99.90;;;;;;4181954;28;20175;-89
2022/05/22 02:32:57;;;;;;;10.02;2.88;;;12.80;99.90;;;;;;4182008;28;20254;-89
2022/05/22 02:34:58;;;;;;;8.40;3.65;;;12.60;99.90;;;;;;4181950;28;20179;-90
2022/05/22 02:37:00;;;;;;;10.38;3.60;;;12.50;99.90;;;;;;4181462;28;20195;-88
2022/05/22 02:39:02;;;;;;;10.65;3.22;;;12.60;99.90;;;;;;4198261;28;20694;-88
2022/05/22 02:41:16;;;;;;;8.02;3.58;;;12.70;99.90;;;;;;4181757;28;20183;-88
2022/05/22 02:43:23;;;;;;;14.20;3.50;;;12.70;99.90;;;;;;4182630;28;20172;-90
2022/05/22 02:45:31;;;;;;;13.25;3.78;;;12.80;99.90;;;;;;4182476;28;20732;-91
2022/05/22 02:47:38;;;;;;;13.60;3.60;;;12.80;99.90;;;;;;4182610;28;20203;-90
2022/05/22 02:49:39;;;;;;;10.65;3.17;;;12.70;99.90;;;;;;4197703;28;20171;-90
2022/05/22 02:51:40;;;;;;;13.52;3.75;;;12.90;99.90;;;;;;4181756;28;20179;-89
2022/05/22 02:53:41;;;;;;;10.70;3.42;;;13.70;99.90;;;;;;4181675;28;20243;-90
2022/05/22 02:56:10;;;;;;;11.52;3.92;;;13.90;99.90;;;;;;4197658;28;20253;-90
2022/05/22 02:58:30;;;;;;;12.20;3.65;;;13.50;99.90;;;;;;4198353;28;20263;-90
2022/05/22 03:00:31;;;;;;;11.75;3.67;;;13.50;99.90;;;;;;4198020;28;20167;-91
2022/05/22 03:02:32;;;;;;;11.20;3.45;;;14.00;99.90;;;;;;4198345;28;20237;-90
2022/05/22 03:04:34;;;;;;;10.07;3.22;;;14.10;99.90;;;;;;4181419;28;20179;-90
2022/05/22 03:06:45;;;;;;;12.52;3.50;;;13.90;99.90;;;;;;4182770;28;20194;-88
2022/05/22 03:08:45;;;;;;;9.65;3.40;;;13.60;99.90;;;;;;4181452;28;20207;-88
2022/05/22 03:10:46;;;;;;;12.15;3.05;;;13.40;99.90;;;;;;4181323;28;20172;-88
2022/05/22 03:12:47;;;;;;;13.52;3.58;;;13.20;99.90;;;;;;4181360;28;20198;-88
2022/05/22 03:14:55;;;;;;;15.13;3.90;;;13.20;99.90;;;;;;4182024;28;20207;-90
2022/05/22 03:16:56;;;;;;;13.07;3.13;;;13.30;99.90;;;;;;4197985;28;20191;-90
2022/05/22 03:19:03;;;;;;;15.07;3.25;;;13.20;99.90;;;;;;4182003;28;20171;-90
2022/05/22 03:21:05;;;;;;;11.38;3.58;;;13.20;99.90;;;;;;4197797;28;20685;-89
2022/05/22 03:23:06;;;;;;;10.45;3.58;;;13.10;99.90;;;;;;4181104;28;20250;-88
2022/05/22 03:25:07;;;;;;;9.65;3.08;;;13.10;99.90;;;;;;4181329;28;20175;-90
2022/05/22 03:27:11;;;;;;;7.47;3.35;;;13.00;99.90;;;;;;4181032;28;20214;-88
2022/05/22 03:29:11;;;;;;;7.00;3.30;;;13.00;99.90;;;;;;4181284;28;20175;-91
2022/05/22 03:31:12;;;;;;;12.40;4.07;;;12.90;99.90;;;;;;4197603;28;20714;-90
2022/05/22 03:33:13;;;;;;;14.27;3.53;;;12.90;99.90;;;;;;4181105;28;20183;-89
2022/05/22 03:35:21;;;;;;;12.25;3.80;;;12.90;99.90;;;;;;4197642;28;20269;-88
2022/05/22 03:37:28;;;;;;;7.93;3.65;;;13.00;99.90;;;;;;4181685;28;20286;-89
2022/05/22 03:39:33;;;;;;;12.60;4.13;;;13.00;99.90;;;;;;4181482;28;20171;-90
2022/05/22 03:41:38;;;;;;;10.27;3.60;;;13.10;99.90;;;;;;4197394;28;20270;-90
2022/05/22 03:43:39;;;;;;;10.65;3.55;;;13.10;99.90;;;;;;4180945;28;20639;-89
2022/05/22 03:45:52;;;;;;;11.45;3.45;;;13.00;99.90;;;;;;4182423;28;20171;-88
2022/05/22 03:47:53;;;;;;;11.13;3.30;;;12.80;99.90;;;;;;4181002;28;20603;-91
2022/05/22 03:50:04;;;;;;;9.88;3.60;;;12.60;99.90;;;;;;4181483;28;20179;-91
2022/05/22 03:52:05;;;;;;;16.92;4.03;;;12.40;99.90;;;;;;4181040;28;20643;-90
2022/05/22 03:54:06;;;;;;;9.05;3.47;;;12.60;99.90;;;;;;4181264;28;20172;-90
2022/05/22 03:56:15;;;;;;;10.18;3.78;;;13.30;99.90;;;;;;4181813;28;20213;-90
2022/05/22 03:58:18;;;;;;;12.00;3.47;;;13.30;99.90;;;;;;4181039;28;20179;-88
2022/05/22 04:00:21;;;;;;;9.55;3.55;;;13.20;99.90;;;;;;4181390;28;20180;-90
2022/05/22 04:02:25;;;;;;;8.30;3.95;;;13.10;99.90;;;;;;4184700;28;20167;-91
2022/05/22 04:04:26;;;;;;;13.88;3.55;;;13.00;99.90;;;;;;4184396;28;20203;-89
2022/05/22 04:06:26;;;;;;;10.20;3.72;;;13.10;99.90;;;;;;4184222;28;20195;-87
2022/05/22 04:08:29;;;;;;;10.75;3.65;;;13.00;99.90;;;;;;4184066;28;20685;-89
2022/05/22 04:10:30;;;;;;;11.15;3.80;;;13.00;99.90;;;;;;4200582;28;20174;-87
2022/05/22 04:12:31;;;;;;;10.35;3.08;;;13.00;99.90;;;;;;4183998;28;20253;-88
2022/05/22 04:14:32;;;;;;;9.27;4.05;;;13.00;99.90;;;;;;4184495;28;20176;-88
2022/05/22 04:16:45;;;;;;;11.20;3.53;;;13.00;99.90;;;;;;4185506;28;20191;-89
2022/05/22 04:18:45;;;;;;;8.38;3.45;;;13.10;99.90;;;;;;4200658;28;20259;-87
2022/05/22 04:20:46;;;;;;;15.05;4.13;;;13.20;99.90;;;;;;4183981;28;20564;-90
2022/05/22 04:25:40;;;;;;;10.75;3.60;;;13.40;99.90;;;;;;4200379;28;20170;-90
2022/05/22 04:27:42;;;;;;;13.05;3.58;;;13.40;99.90;;;;;;4183548;28;20760;-87
2022/05/22 04:29:44;;;;;;;11.18;3.45;;;13.50;99.90;;;;;;4183603;28;20590;-90
2022/05/22 04:31:45;;;;;;;9.60;4.25;;;13.50;99.90;;;;;;4200251;28;20174;-87
2022/05/22 04:33:55;;;;;;;12.57;4.07;;;13.60;99.90;;;;;;4185246;28;20178;-90
2022/05/22 04:35:57;;;;;;;13.32;4.15;;;14.10;99.90;;;;;;4183445;28;20225;-89
2022/05/22 04:38:02;;;;;;;12.52;3.90;;;14.40;99.90;;;;;;4200123;28;20228;-90
2022/05/22 04:40:06;;;;;;;17.17;4.20;;;14.50;99.90;;;;;;4200220;28;20272;-90
2022/05/22 04:42:07;;;;;;;15.32;3.25;;;14.70;99.90;;;;;;4183758;28;20183;-91
2022/05/22 04:44:08;;;;;;;11.30;4.55;;;15.20;99.90;;;;;;4200262;28;20206;-88
2022/05/22 04:46:10;;;;;;;10.52;3.75;;;15.50;99.90;;;;;;4183773;28;20187;-90
2022/05/22 04:48:11;;;;;;;17.25;4.60;;;15.60;99.90;;;;;;4183598;28;20207;-89
2022/05/22 04:50:29;;;;;;;11.57;4.40;;;15.60;99.90;;;;;;4185680;28;20168;-90
2022/05/22 04:52:48;;;;;;;14.77;4.45;;;15.40;99.90;;;;;;4200421;28;20182;-89
2022/05/22 04:54:52;;;;;;;18.58;4.75;;;15.40;99.90;;;;;;4183720;28;20594;-89
2022/05/22 04:56:53;;;;;;;11.98;4.72;;;15.30;99.90;;;;;;4200107;28;20234;-89
2022/05/22 04:58:55;;;;;;;17.00;4.72;;;15.20;99.90;;;;;;4183838;28;20254;-90
2022/05/22 05:01:03;;;;;;;10.70;4.63;;;15.00;99.90;;;;;;4184111;28;20168;-90
2022/05/22 05:03:09;;;;;;;16.15;4.25;;;14.90;99.90;;;;;;4184444;28;20686;-89
2022/05/22 05:05:11;;;;;;;11.40;4.65;;;14.70;99.90;;;;;;4183599;28;20217;-91
2022/05/22 05:07:13;;;;;;;8.40;3.97;;;15.00;99.90;;;;;;4183554;28;20197;-87
2022/05/22 05:09:50;;;;;;;13.13;3.70;;;15.10;99.90;;;;;;4166284;28;20183;-88
2022/05/22 05:12:14;;;;;;;11.60;4.55;;;14.90;99.90;;;;;;4176774;28;20179;-89
2022/05/22 05:14:15;;;;;;;12.02;4.40;;;15.00;99.90;;;;;;4200020;28;20179;-88
2022/05/22 05:16:16;;;;;;;13.43;4.25;;;15.10;99.90;;;;;;4183196;28;20683;-88
2022/05/22 05:18:33;;;;;;;9.82;4.13;;;15.10;99.90;;;;;;4199753;28;20175;-90
2022/05/22 05:20:35;;;;;;;14.75;4.90;;;15.00;99.90;;;;;;4199427;28;20627;-91
2022/05/22 05:22:37;;;;;;;20.08;4.65;;;15.20;99.90;;;;;;4199349;28;20258;-89
2022/05/22 05:24:47;;;;;;;10.95;4.38;;;15.50;99.90;;;;;;4184223;28;20171;-90
2022/05/22 05:26:50;;;;;;;13.82;4.78;;;15.70;99.90;;;;;;4199555;28;20188;-90
2022/05/22 05:28:52;;;;;;;11.93;4.50;;;15.70;99.90;;;;;;4183036;28;20207;-89
2022/05/22 05:31:03;;;;;;;15.75;4.80;;;16.00;99.90;;;;;;4184180;28;20167;-89
2022/05/22 05:33:05;;;;;;;16.95;4.82;;;16.20;99.90;;;;;;4182900;28;20172;-88
2022/05/22 05:35:26;;;;;;;16.92;5.47;;;16.30;99.90;;;;;;4199346;28;20284;-88
2022/05/22 05:37:27;;;;;;;13.13;4.55;;;16.10;99.90;;;;;;4199151;28;20198;-89
2022/05/22 05:39:36;;;;;;;14.40;5.32;;;16.10;99.90;;;;;;4184081;28;20555;-90
2022/05/22 05:41:40;;;;;;;13.52;5.00;;;16.00;99.90;;;;;;4199465;28;20187;-90
2022/05/22 05:43:41;;;;;;;13.25;4.53;;;15.80;99.90;;;;;;4182806;28;20179;-89
2022/05/22 05:45:43;;;;;;;8.27;4.00;;;15.30;99.90;;;;;;4182817;28;20199;-89
2022/05/22 05:47:46;;;;;;;13.15;4.28;;;15.10;99.90;;;;;;4182581;28;20280;-89
2022/05/22 05:49:49;;;;;;;7.70;3.55;;;15.00;99.90;;;;;;4182884;28;20218;-88
2022/05/22 05:52:02;;;;;;;8.15;3.25;;;14.90;99.90;;;;;;4183880;28;20167;-90
2022/05/22 05:54:04;;;;;;;8.55;3.58;;;15.00;99.90;;;;;;4199241;28;20214;-90
2022/05/22 05:56:31;;;;;;;9.32;3.58;;;15.10;99.90;;;;;;4199235;28;20207;-90
2022/05/22 05:58:44;;;;;;;14.07;3.80;;;15.20;99.90;;;;;;4184338;28;20257;-91
2022/05/22 06:01:16;;;;;;;9.30;4.30;;;15.30;99.90;;;;;;4190747;28;20171;-90
2022/05/22 06:03:17;;;;;;;9.70;4.47;;;15.50;99.90;;;;;;4182702;28;20180;-88
2022/05/22 06:05:19;;;;;;;7.50;4.07;;;15.60;99.90;;;;;;4199125;28;20261;-90
2022/05/22 06:07:20;;;;;;;11.07;4.70;;;15.70;99.90;;;;;;4182305;28;20188;-90
2022/05/22 06:09:21;;;;;;;14.55;4.93;;;15.90;99.90;;;;;;4199299;28;20179;-89
2022/05/22 06:11:28;;;;;;;12.43;4.40;;;16.10;99.90;;;;;;4199131;28;20631;-90
2022/05/22 06:13:30;;;;;;;11.52;4.15;;;16.00;99.90;;;;;;4182330;28;20172;-88
2022/05/22 06:15:31;;;;;;;8.98;4.40;;;16.10;99.90;;;;;;4181957;28;20182;-87
2022/05/22 06:17:36;;;;;;;11.82;4.40;;;16.10;99.90;;;;;;4198676;28;20191;-91
2022/05/22 06:19:57;;;;;;;10.93;4.10;;;16.20;99.90;;;;;;4182240;28;20184;-90
2022/05/22 06:22:00;;;;;;;15.13;4.70;;;16.30;99.90;;;;;;4182223;28;20172;-90
2022/05/22 06:24:01;;;;;;;12.25;4.70;;;16.30;99.90;;;;;;4197694;28;20232;-89
2022/05/22 06:26:37;;;;;;;14.65;4.65;;;16.40;99.90;;;;;;4199058;28;20198;-90
2022/05/22 06:29:06;;;;;;;13.38;4.28;;;16.40;99.90;;;;;;4152698;28;20207;-89
2022/05/22 06:31:39;;;;;;;11.35;4.57;;;16.50;99.90;;;;;;4176631;28;20261;-89
2022/05/22 06:33:58;;;;;;;15.50;3.22;;;16.60;99.90;;;;;;4199094;28;20179;-88
2022/05/22 06:36:19;;;;;;;17.30;3.72;;;16.60;99.90;;;;;;4187779;28;20203;-90
2022/05/22 06:41:08;;;;;;;12.68;3.28;;;16.80;99.90;;;;;;4185881;28;20279;-89
2022/05/22 06:43:35;;;;;;;7.15;2.67;;;16.90;99.90;;;;;;4195329;28;20174;-91
2022/05/22 06:46:00;;;;;;;11.15;3.10;;;17.00;99.90;;;;;;4184899;28;20179;-90
2022/05/22 06:48:21;;;;;;;8.10;2.20;;;17.10;99.90;;;;;;4198281;28;20264;-89
2022/05/22 06:50:50;;;;;;;8.38;2.30;;;16.90;99.90;;;;;;4176981;28;20174;-87
2022/05/22 06:53:14;;;;;;;12.15;2.60;;;16.90;99.90;;;;;;4197983;28;20244;-90
2022/05/22 06:55:29;;;;;;;6.97;2.20;;;17.20;99.90;;;;;;4198341;28;20651;-90
2022/05/22 06:57:50;;;;;;;6.28;2.25;;;17.50;99.90;;;;;;4197585;28;20209;-89
2022/05/22 07:00:06;;;;;;;8.27;2.42;;;17.60;99.90;;;;;;4183377;28;20207;-89
2022/05/22 07:02:42;;;;;;;10.18;2.33;;;17.50;99.90;;;;;;4180275;28;20178;-88
2022/05/22 07:04:52;;;;;;;7.80;1.98;;;17.40;99.90;;;;;;4182786;28;20273;-89
2022/05/22 07:07:12;;;;;;;6.93;2.38;;;17.50;99.90;;;;;;4199153;28;20240;-87
2022/05/22 07:09:41;;;;;;;5.95;2.10;;;17.60;99.90;;;;;;4185204;28;20194;-90
2022/05/22 07:12:12;;;;;;;8.95;2.25;;;18.30;99.90;;;;;;4175030;28;20183;-90
2022/05/22 07:14:18;;;;;;;11.77;2.63;;;20.30;99.90;;;;;;4181940;28;20167;-89
2022/05/22 07:16:38;;;;;;;5.82;2.00;;;22.00;99.90;;;;;;4198362;28;20328;-91
2022/05/22 07:18:50;;;;;;;6.45;2.22;;;24.10;99.90;;;;;;4182986;28;20182;-89
2022/05/22 07:21:20;;;;;;;8.65;1.92;;;26.00;99.90;;;;;;4185066;28;20171;-90
2022/05/22 07:23:40;;;;;;;8.57;1.85;;;27.50;99.90;;;;;;4198042;28;20228;-90
2022/05/22 07:26:08;;;;;;;9.38;2.00;;;28.30;99.90;;;;;;4184741;28;20182;-90
2022/05/22 07:28:32;;;;;;;12.35;2.25;;;28.20;99.90;;;;;;4184205;28;20273;-90
2022/05/22 07:30:33;;;;;;;10.80;2.20;;;28.80;99.90;;;;;;4198272;28;20171;-89
2022/05/22 07:32:43;;;;;;;7.65;2.20;;;27.30;99.90;;;;;;4182473;28;20163;-90
2022/05/22 07:35:07;;;;;;;8.77;2.88;;;28.00;99.90;;;;;;4160498;28;20179;-90
2022/05/22 07:37:37;;;;;;;12.82;2.45;;;28.30;99.90;;;;;;4151101;28;20192;-89
2022/05/22 07:39:58;;;;;;;6.93;2.10;;;28.70;99.90;;;;;;4197584;28;20202;-91
2022/05/22 07:42:17;;;;;;;7.05;2.30;;;29.30;99.90;;;;;;4197728;28;20182;-90
2022/05/22 07:44:28;;;;;;;11.10;2.70;;;29.70;99.90;;;;;;4182564;28;20175;-90
2022/05/22 07:46:39;;;;;;;7.32;2.33;;;30.40;99.90;;;;;;4182382;28;20183;-88
2022/05/22 07:48:48;;;;;;;8.63;2.75;;;30.90;99.90;;;;;;4182053;28;20210;-90
2022/05/22 07:51:18;;;;;;;11.77;2.92;;;29.50;99.90;;;;;;4184758;28;20178;-90
2022/05/22 07:53:42;;;;;;;13.85;3.17;;;29.30;99.90;;;;;;4189277;28;20187;-88
2022/05/22 07:55:58;;;;;;;10.73;3.00;;;27.50;99.90;;;;;;4182702;28;20691;-90
2022/05/22 07:57:58;;;;;;;9.27;2.67;;;26.70;99.90;;;;;;4198533;28;20186;-90
2022/05/22 08:00:19;;;;;;;9.00;2.55;;;27.40;99.90;;;;;;4197865;28;20166;-90
2022/05/22 08:02:26;;;;;;;11.95;2.85;;;28.70;99.90;;;;;;4181702;28;20180;-90
2022/05/22 08:04:31;;;;;;;5.90;2.63;;;29.20;99.90;;;;;;4197413;28;20163;-88
2022/05/22 08:06:50;;;;;;;11.25;3.47;;;29.30;99.90;;;;;;4197878;28;20204;-90
2022/05/22 08:09:11;;;;;;;8.35;2.95;;;29.90;99.90;;;;;;4197390;28;20198;-89
2022/05/22 08:11:11;;;;;;;8.38;3.03;;;29.90;99.90;;;;;;4180876;28;20171;-90
2022/05/22 08:13:41;;;;;;;9.23;3.10;;;29.40;99.90;;;;;;4186855;28;20179;-88
2022/05/22 08:15:43;;;;;;;10.07;3.25;;;29.90;99.90;;;;;;4180834;28;20678;-85
2022/05/22 08:18:00;;;;;;;8.10;2.63;;;30.00;99.90;;;;;;4197184;28;20630;-88
2022/05/22 08:20:07;;;;;;;10.32;3.45;;;30.80;99.90;;;;;;4180784;28;20224;-87
2022/05/22 08:22:28;;;;;;;9.35;2.95;;;31.00;99.90;;;;;;4196766;28;20175;-86
2022/05/22 08:24:43;;;;;;;10.48;3.17;;;31.30;99.90;;;;;;4197512;28;20174;-87
2022/05/22 08:26:44;;;;;;;9.50;3.72;;;31.10;99.90;;;;;;4180527;28;20195;-87
2022/05/22 08:28:46;;;;;;;8.45;2.90;;;30.70;99.90;;;;;;4180854;28;20265;-87
2022/05/22 08:30:47;;;;;;;9.90;2.75;;;30.40;99.90;;;;;;4197358;28;20166;-90
2022/05/22 08:32:50;;;;;;;9.65;3.10;;;30.40;99.90;;;;;;4180949;28;20209;-89
2022/05/22 08:34:54;;;;;;;8.63;2.45;;;31.30;99.90;;;;;;4180734;28;20198;-90
2022/05/22 08:36:55;;;;;;;9.57;2.70;;;31.40;99.90;;;;;;4180134;28;20191;-85
2022/05/22 08:38:55;;;;;;;10.77;2.80;;;31.20;99.90;;;;;;4180744;28;20270;-88
2022/05/22 08:41:06;;;;;;;9.52;2.20;;;31.60;99.90;;;;;;4180577;28;20261;-88
2022/05/22 08:43:15;;;;;;;6.68;2.30;;;32.60;99.90;;;;;;4180882;28;20170;-88
2022/05/22 08:45:20;;;;;;;7.00;2.03;;;32.00;99.90;;;;;;4197264;28;20239;-88
2022/05/22 08:47:28;;;;;;;5.03;1.48;;;32.50;99.90;;;;;;4181095;28;20281;-88
2022/05/22 08:49:47;;;;;;;3.75;1.23;;;33.10;99.90;;;;;;4200118;28;20569;-88
2022/05/22 08:52:18;;;;;;;6.72;1.77;;;33.00;99.90;;;;;;4183330;28;20178;-88
2022/05/22 08:54:24;;;;;;;6.80;1.67;;;32.90;99.90;;;;;;4165476;28;20174;-88
2022/05/22 08:59:10;;;;;;;8.93;1.92;;;32.90;99.90;;;;;;4200104;28;20200;-88
2022/05/22 09:01:15;;;;;;;7.22;2.72;;;33.30;99.90;;;;;;4201042;28;20511;-89
2022/05/22 09:03:25;;;;;;;11.98;2.63;;;33.30;99.90;;;;;;4183317;28;20159;-89
2022/05/22 09:05:29;;;;;;;6.40;1.98;;;32.30;99.90;;;;;;4199929;28;20262;-89
2022/05/22 09:07:38;;;;;;;6.03;2.03;;;31.90;99.90;;;;;;4199558;28;20201;-88
2022/05/22 09:09:43;;;;;;;5.97;2.00;;;32.90;99.90;;;;;;4199951;28;20182;-88
2022/05/22 09:12:11;;;;;;;8.65;1.42;;;33.40;99.90;;;;;;4199982;28;20182;-90
2022/05/22 09:14:21;;;;;;;4.40;1.60;;;33.60;99.90;;;;;;4183544;28;20175;-90
2022/05/22 09:16:42;;;;;;;5.07;1.67;;;33.50;99.90;;;;;;4199968;28;20194;-90
2022/05/22 09:19:14;;;;;;;7.68;1.77;;;33.60;99.90;;;;;;4183363;28;20201;-89
2022/05/22 09:21:36;;;;;;;7.30;1.70;;;32.90;99.90;;;;;;4199635;28;20201;-89
2022/05/22 09:23:49;;;;;;;6.13;1.70;;;33.00;99.90;;;;;;4182753;28;20167;-88
2022/05/22 09:26:12;;;;;;;7.38;1.83;;;32.80;99.90;;;;;;4182895;28;20353;-89
2022/05/22 09:28:23;;;;;;;6.13;1.85;;;32.00;99.90;;;;;;4182703;28;20246;-89
2022/05/22 09:30:54;;;;;;;5.10;1.55;;;32.20;99.90;;;;;;4199083;28;20205;-88
2022/05/22 09:33:19;;;;;;;9.32;2.13;;;32.80;99.90;;;;;;4166953;28;20191;-88
2022/05/22 09:35:21;;;;;;;5.60;1.50;;;33.30;99.90;;;;;;4182940;28;20163;-90
2022/05/22 09:37:56;;;;;;;9.13;1.98;;;33.50;99.90;;;;;;4199598;28;20240;-91
2022/05/22 09:40:17;;;;;;;6.05;2.22;;;31.70;99.90;;;;;;4199699;28;20177;-90
2022/05/22 09:42:36;;;;;;;8.02;1.90;;;32.00;99.90;;;;;;4183005;28;20254;-90
2022/05/22 09:45:04;;;;;;;6.18;2.00;;;32.40;99.90;;;;;;4182599;28;20174;-90
2022/05/22 09:47:20;;;;;;;5.80;1.90;;;32.50;99.90;;;;;;4199280;28;20190;-88
2022/05/22 09:49:30;;;;;;;7.45;1.95;;;32.50;99.90;;;;;;4182797;28;20218;-92
2022/05/22 09:51:51;;;;;;;5.25;2.35;;;33.20;99.90;;;;;;4182679;28;20792;-89
2022/05/22 09:53:58;;;;;;;7.03;2.03;;;33.00;99.90;;;;;;4182746;28;20179;-90
2022/05/22 09:56:15;;;;;;;6.72;2.13;;;32.90;99.90;;;;;;4199321;28;20177;-90
2022/05/22 09:58:32;;;;;;;6.13;2.13;;;31.70;99.90;;;;;;4199061;28;20182;-90
2022/05/22 10:00:33;;;;;;;9.77;2.50;;;31.00;99.90;;;;;;4198069;28;20208;-89
2022/05/22 10:03:15;;;;;;;5.43;2.30;;;31.70;99.90;;;;;;4198976;28;20170;-89
2022/05/22 10:05:37;;;;;;;6.10;2.53;;;32.00;99.90;;;;;;4150676;28;20193;-87
2022/05/22 10:07:46;;;;;;;7.53;2.58;;;30.50;99.90;;;;;;4182058;28;20289;-90
2022/05/22 10:09:53;;;;;;;8.52;2.80;;;30.50;99.90;;;;;;4194830;28;20225;-88
2022/05/22 10:12:20;;;;;;;7.18;2.63;;;30.30;99.90;;;;;;4182217;28;20665;-89
2022/05/22 10:14:52;;;;;;;7.72;2.10;;;30.30;99.90;;;;;;4182664;28;20174;-89
2022/05/22 10:16:58;;;;;;;6.47;2.53;;;30.20;99.90;;;;;;4165959;28;20254;-90
2022/05/22 10:19:07;;;;;;;9.45;2.85;;;30.50;99.90;;;;;;4175460;28;20654;-89
2022/05/22 10:21:29;;;;;;;7.18;2.72;;;29.30;99.90;;;;;;4165676;28;20175;-89
2022/05/22 10:23:38;;;;;;;6.88;2.17;;;28.90;99.90;;;;;;4182093;28;20642;-88
2022/05/22 10:26:17;;;;;;;9.65;2.45;;;28.90;99.90;;;;;;4165426;28;20246;-88
2022/05/22 10:28:22;;;;;;;7.30;2.03;;;28.40;99.90;;;;;;4171482;28;20625;-91
2022/05/22 10:30:42;;;;;;;7.53;2.55;;;28.40;99.90;;;;;;4181970;28;20164;-91
2022/05/22 10:32:46;;;;;;;7.30;2.47;;;28.20;99.90;;;;;;4165669;28;20179;-92
2022/05/22 10:34:57;;;;;;;5.50;2.00;;;27.40;99.90;;;;;;4165589;28;20586;-91
2022/05/22 10:37:10;;;;;;;6.93;2.08;;;27.00;99.90;;;;;;4182071;28;20702;-91
2022/05/22 10:39:12;;;;;;;6.50;1.98;;;26.70;99.90;;;;;;4178563;28;20175;-91
2022/05/22 10:43:51;;;;;;;4.93;1.90;;;26.30;99.90;;;;;;4198375;28;20179;-92
2022/05/22 10:45:52;;;;;;;9.45;1.83;;;25.90;99.90;;;;;;4181822;28;20248;-91
2022/05/22 10:47:54;;;;;;;6.63;1.67;;;25.70;99.90;;;;;;4181467;28;20199;-90
2022/05/22 10:49:59;;;;;;;4.63;2.10;;;25.50;99.90;;;;;;4182223;28;20183;-90
2022/05/22 10:52:03;;;;;;;4.72;1.80;;;25.40;99.90;;;;;;4182061;28;20175;-92
2022/05/22 10:54:04;;;;;;;7.78;2.25;;;25.50;99.90;;;;;;4181673;28;20681;-91
2022/05/22 10:56:13;;;;;;;5.82;2.20;;;25.70;99.90;;;;;;4197871;28;20171;-90
2022/05/22 10:58:30;;;;;;;11.43;1.70;;;25.80;99.90;;;;;;4181731;28;20547;-90
2022/05/22 11:00:32;;;;;;;5.55;2.17;;;25.60;99.90;;;;;;4181552;28;20179;-90
2022/05/22 11:02:33;;;;;;;7.43;2.40;;;25.40;99.90;;;;;;4181658;28;20266;-91
2022/05/22 11:04:41;;;;;;;9.00;2.15;;;25.20;99.90;;;;;;4181243;28;20205;-90
2022/05/22 11:06:58;;;;;;;9.70;1.95;;;25.10;99.90;;;;;;4181350;28;20669;-90
2022/05/22 11:08:59;;;;;;;6.55;2.05;;;25.20;99.90;;;;;;4198627;28;20784;-90
2022/05/22 11:11:19;;;;;;;5.88;2.20;;;25.10;99.90;;;;;;4181031;28;20171;-90
2022/05/22 11:13:25;;;;;;;7.80;2.20;;;25.40;99.90;;;;;;4181494;28;20183;-91
2022/05/22 11:15:29;;;;;;;6.53;1.90;;;25.50;99.90;;;;;;4181387;28;20167;-90
2022/05/22 11:17:30;;;;;;;7.25;2.50;;;25.60;99.90;;;;;;4181393;28;20206;-90